createdAt,value
2023-05-14T00:01:20.207Z,100910.80
2023-05-14T00:03:54.522Z,100911.00
2023-05-14T00:06:28.925Z,100907.20
2023-05-14T00:09:04.528Z,100905.80
2023-05-14T00:11:39.028Z,100905.00
2023-05-14T00:14:13.386Z,100901.40
2023-05-14T00:16:47.698Z,100898.40
2023-05-14T00:19:21.955Z,100899.20
2023-05-14T00:21:56.033Z,100894.60
2023-05-14T00:24:30.533Z,100895.00
2023-05-14T00:27:05.094Z,100896.20
2023-05-14T00:29:39.567Z,100891.20
2023-05-14T00:32:14.005Z,100890.40
2023-05-14T00:34:48.206Z,100889.40
2023-05-14T00:37:22.311Z,100889.40
2023-05-14T00:39:56.498Z,100888.80
2023-05-14T00:42:30.616Z,100889.00
2023-05-14T00:45:05.066Z,100882.40
2023-05-14T00:47:40.682Z,100885.60
2023-05-14T00:50:17.930Z,100886.20
2023-05-14T00:52:52.516Z,100881.60
2023-05-14T00:55:27.845Z,100883.00
2023-05-14T00:58:04.528Z,100883.80
2023-05-14T01:00:39.454Z,100880.40
2023-05-14T01:03:14.212Z,100879.20
2023-05-14T01:06:02.358Z,100874.20
2023-05-14T01:08:47.948Z,100876.80
2023-05-14T01:11:30.750Z,100871.60
2023-05-14T01:14:15.935Z,100868.60
2023-05-14T01:16:53.705Z,100867.20
2023-05-14T01:19:38.665Z,100865.60
2023-05-14T01:22:13.535Z,100854.80
2023-05-14T01:24:47.744Z,100853.20
2023-05-14T01:27:31.362Z,100856.80
2023-05-14T01:30:15.948Z,100853.60
2023-05-14T01:32:56.153Z,100854.00
2023-05-14T01:35:32.658Z,100855.80
2023-05-14T01:38:11.812Z,100855.80
2023-05-14T01:40:50.173Z,100852.80
2023-05-14T01:43:25.602Z,100854.80
2023-05-14T01:46:00.070Z,100851.60
2023-05-14T01:48:35.034Z,100849.60
2023-05-14T01:51:09.131Z,100853.60
2023-05-14T01:53:43.396Z,100852.00
2023-05-14T01:56:18.369Z,100846.40
2023-05-14T01:58:52.571Z,100844.40
2023-05-14T02:01:27.817Z,100845.80
2023-05-14T02:04:02.319Z,100838.00
2023-05-14T02:06:36.495Z,100837.60
2023-05-14T02:09:11.351Z,100833.20
2023-05-14T02:11:45.795Z,100838.60
2023-05-14T02:14:20.080Z,100833.40
2023-05-14T02:16:54.432Z,100829.00
2023-05-14T02:19:28.659Z,100831.60
2023-05-14T02:22:03.462Z,100833.60
2023-05-14T02:24:38.072Z,100838.20
2023-05-14T02:27:13.266Z,100833.20
2023-05-14T02:29:47.426Z,100835.80
2023-05-14T02:32:21.575Z,100835.60
2023-05-14T02:34:55.726Z,100838.00
2023-05-14T02:37:29.906Z,100834.80
2023-05-14T02:40:04.550Z,100829.40
2023-05-14T02:42:39.657Z,100827.00
2023-05-14T02:45:14.847Z,100828.80
2023-05-14T02:47:49.031Z,100830.00
2023-05-14T02:50:23.729Z,100831.00
2023-05-14T03:54:56.666Z,100830.00
2023-05-14T03:57:31.096Z,100821.00
2023-05-14T04:00:05.499Z,100817.20
2023-05-14T04:02:50.900Z,100816.20
2023-05-14T04:05:25.630Z,100811.00
2023-05-14T04:07:59.902Z,100815.80
2023-05-14T04:10:34.700Z,100815.20
2023-05-14T04:13:08.824Z,100816.20
2023-05-14T04:15:45.938Z,100811.40
2023-05-14T04:18:20.869Z,100807.40
2023-05-14T04:20:56.378Z,100809.40
2023-05-14T04:23:31.912Z,100808.60
2023-05-14T04:26:06.579Z,100808.40
2023-05-14T04:28:40.719Z,100806.80
2023-05-14T04:31:15.521Z,100807.80
2023-05-14T04:33:49.970Z,100804.40
2023-05-14T04:36:24.111Z,100800.00
2023-05-14T04:38:58.296Z,100800.60
2023-05-14T04:41:32.606Z,100797.20
2023-05-14T04:44:08.243Z,100799.20
2023-05-14T04:46:42.435Z,100797.40
2023-05-14T04:49:16.552Z,100796.00
2023-05-14T04:51:50.828Z,100794.80
2023-05-14T04:54:25.063Z,100791.40
2023-05-14T04:57:03.216Z,100790.80
2023-05-14T04:59:37.710Z,100784.60
2023-05-14T05:02:11.993Z,100782.00
2023-05-14T05:04:47.283Z,100779.40
2023-05-14T05:07:21.520Z,100776.40
2023-05-14T05:09:55.748Z,100776.20
2023-05-14T05:12:30.383Z,100777.60
2023-05-14T05:15:05.176Z,100772.20
2023-05-14T05:17:39.547Z,100769.40
2023-05-14T05:20:15.941Z,100762.40
2023-05-14T05:22:50.260Z,100764.00
2023-05-14T05:25:26.338Z,100757.00
2023-05-14T05:28:00.506Z,100757.40
2023-05-14T05:30:34.690Z,100747.00
2023-05-14T05:33:09.339Z,100746.80
2023-05-14T05:35:44.678Z,100747.40
2023-05-14T05:38:19.314Z,100742.40
2023-05-14T05:40:53.874Z,100734.20
2023-05-14T05:43:28.702Z,100734.80
2023-05-14T05:46:03.293Z,100738.00
2023-05-14T05:48:37.619Z,100735.60
2023-05-14T05:51:12.140Z,100742.40
2023-05-14T05:53:46.566Z,100738.20
2023-05-14T05:56:22.249Z,100738.40
2023-05-14T05:58:56.875Z,100732.80
2023-05-14T06:01:31.473Z,100733.40
2023-05-14T06:04:06.419Z,100737.40
2023-05-14T06:06:40.845Z,100728.40
2023-05-14T06:09:16.198Z,100724.60
2023-05-14T06:11:50.523Z,100723.60
2023-05-14T06:14:25.313Z,100722.80
2023-05-14T06:16:59.899Z,100722.40
2023-05-14T06:19:34.316Z,100716.80
2023-05-14T06:22:09.228Z,100720.20
2023-05-14T06:24:43.448Z,100720.40
2023-05-14T06:27:17.651Z,100715.20
2023-05-14T06:29:52.035Z,100710.00
2023-05-14T06:32:26.238Z,100707.60
2023-05-14T06:35:00.463Z,100705.80
2023-05-14T06:37:34.949Z,100707.20
2023-05-14T06:40:12.306Z,100706.00
2023-05-14T06:42:46.838Z,100704.20
2023-05-14T06:45:21.431Z,100694.60
2023-05-14T06:47:58.732Z,100705.40
2023-05-14T06:50:33.103Z,100702.40
2023-05-14T06:53:07.234Z,100693.40
2023-05-14T06:55:42.066Z,100689.20
2023-05-14T06:58:16.354Z,100693.60
2023-05-14T07:00:51.168Z,100685.20
2023-05-14T07:03:25.621Z,100678.00
2023-05-14T07:06:00.282Z,100675.00
2023-05-14T07:08:34.506Z,100675.00
2023-05-14T07:11:08.710Z,100674.20
2023-05-14T07:13:43.316Z,100670.80
2023-05-14T07:16:17.647Z,100668.40
2023-05-14T07:18:51.942Z,100655.20
2023-05-14T07:21:26.548Z,100651.60
2023-05-14T07:24:00.995Z,100655.80
2023-05-14T07:26:35.357Z,100659.20
2023-05-14T07:29:09.549Z,100654.60
2023-05-14T07:31:43.860Z,100658.40
2023-05-14T07:34:18.596Z,100665.20
2023-05-14T07:36:52.941Z,100655.60
2023-05-14T07:39:27.258Z,100653.60
2023-05-14T07:42:01.530Z,100650.20
2023-05-14T07:44:36.146Z,100658.40
2023-05-14T07:47:10.867Z,100651.40
2023-05-14T07:49:45.532Z,100650.60
2023-05-14T07:52:19.820Z,100645.60
2023-05-14T07:54:55.187Z,100646.80
2023-05-14T07:57:29.388Z,100646.80
2023-05-14T08:00:04.063Z,100633.40
2023-05-14T08:02:46.731Z,100632.60
2023-05-14T08:05:21.229Z,100629.80
2023-05-14T08:07:55.851Z,100639.00
2023-05-14T08:10:32.759Z,100634.80
2023-05-14T08:13:08.805Z,100624.60
2023-05-14T08:15:42.923Z,100624.40
2023-05-14T08:18:17.123Z,100622.60
2023-05-14T08:20:51.469Z,100624.60
2023-05-14T08:23:26.023Z,100617.80
2023-05-14T08:26:00.570Z,100618.80
2023-05-14T08:28:34.764Z,100620.00
2023-05-14T08:31:09.149Z,100619.60
2023-05-14T08:33:43.824Z,100616.60
2023-05-14T08:36:18.778Z,100613.60
2023-05-14T08:38:53.665Z,100604.60
2023-05-14T08:41:28.876Z,100607.20
2023-05-14T08:44:13.647Z,100596.40
2023-05-14T08:46:48.926Z,100603.20
2023-05-14T08:49:36.846Z,100602.60
2023-05-14T08:52:12.018Z,100598.20
2023-05-14T08:54:46.814Z,100587.20
2023-05-14T08:57:24.958Z,100585.00
2023-05-14T08:59:59.818Z,100574.60
2023-05-14T09:02:36.189Z,100576.00
2023-05-14T09:05:12.741Z,100576.00
2023-05-14T09:07:47.373Z,100573.20
2023-05-14T09:10:23.222Z,100568.80
2023-05-14T09:12:58.023Z,100569.40
2023-05-14T09:15:34.274Z,100563.60
2023-05-14T09:18:11.282Z,100552.80
2023-05-14T09:20:48.084Z,100557.80
2023-05-14T09:23:22.610Z,100554.20
2023-05-14T09:25:57.463Z,100558.20
2023-05-14T09:28:31.966Z,100557.40
2023-05-14T09:31:07.029Z,100553.00
2023-05-14T09:33:41.524Z,100547.80
2023-05-14T09:36:15.709Z,100542.80
2023-05-14T09:38:49.886Z,100537.60
2023-05-14T09:41:24.514Z,100539.20
2023-05-14T09:43:59.360Z,100538.20
2023-05-14T09:46:33.639Z,100536.40
2023-05-14T09:49:08.493Z,100522.00
2023-05-14T09:51:43.636Z,100514.20
2023-05-14T09:54:17.818Z,100511.80
2023-05-14T09:56:55.604Z,100515.80
2023-05-14T09:59:30.170Z,100516.20
2023-05-14T10:02:06.776Z,100507.80
2023-05-14T10:04:42.466Z,100504.20
2023-05-14T10:07:18.592Z,100495.40
2023-05-14T10:09:59.352Z,100488.00
2023-05-14T10:12:38.232Z,100489.00
2023-05-14T10:15:22.035Z,100484.80
2023-05-14T10:18:04.935Z,100479.40
2023-05-14T10:20:41.399Z,100482.20
2023-05-14T10:23:16.453Z,100476.20
2023-05-14T10:25:51.262Z,100481.60
2023-05-14T10:28:25.704Z,100480.40
2023-05-14T10:31:01.233Z,100474.40
2023-05-14T10:33:50.881Z,100475.40
2023-05-14T10:36:25.510Z,100479.80
2023-05-14T10:39:05.349Z,100474.00
2023-05-14T10:41:42.963Z,100466.20
2023-05-14T10:44:18.733Z,100466.20
2023-05-14T10:46:54.210Z,100458.00
2023-05-14T10:49:42.877Z,100463.00
2023-05-14T10:52:20.868Z,100457.60
2023-05-14T10:54:57.826Z,100462.00
2023-05-14T10:57:33.898Z,100450.60
2023-05-14T11:00:12.934Z,100443.80
2023-05-14T11:02:50.077Z,100446.20
2023-05-14T11:05:29.108Z,100444.20
2023-05-14T11:08:11.970Z,100441.60
2023-05-14T11:10:48.028Z,100436.00
2023-05-14T11:13:27.452Z,100428.00
2023-05-14T11:16:21.134Z,100422.00
2023-05-14T11:19:06.323Z,100424.00
2023-05-14T11:21:41.100Z,100425.60
2023-05-14T11:24:15.930Z,100423.00
2023-05-14T11:26:50.392Z,100421.20
2023-05-14T11:29:24.976Z,100410.80
2023-05-14T11:31:59.579Z,100413.00
2023-05-14T11:34:34.735Z,100407.20
2023-05-14T11:37:12.745Z,100407.60
2023-05-14T11:39:55.803Z,100408.40
2023-05-14T11:42:30.290Z,100406.00
2023-05-14T11:45:04.990Z,100404.60
2023-05-14T11:47:39.497Z,100405.60
2023-05-14T11:50:14.751Z,100400.40
2023-05-14T11:52:50.923Z,100400.40
2023-05-14T11:55:25.675Z,100395.80
2023-05-14T11:58:02.028Z,100396.60
2023-05-14T12:00:36.494Z,100387.40
2023-05-14T12:03:13.000Z,100394.20
2023-05-14T12:06:01.210Z,100386.20
2023-05-14T12:08:36.402Z,100389.60
2023-05-14T12:11:12.050Z,100383.60
2023-05-14T12:13:46.717Z,100385.40
2023-05-14T12:16:23.841Z,100380.80
2023-05-14T12:19:03.637Z,100384.20
2023-05-14T12:21:39.889Z,100385.00
2023-05-14T12:24:18.388Z,100382.20
2023-05-14T12:26:55.639Z,100387.60
2023-05-14T12:29:31.103Z,100381.20
2023-05-14T12:32:09.414Z,100382.20
2023-05-14T12:34:43.737Z,100373.60
2023-05-14T12:37:18.600Z,100375.40
2023-05-14T12:39:52.844Z,100372.20
2023-05-14T12:42:27.526Z,100369.40
2023-05-14T12:45:05.621Z,100370.60
2023-05-14T12:47:40.193Z,100369.00
2023-05-14T12:50:15.343Z,100364.40
2023-05-14T12:52:49.710Z,100358.80
2023-05-14T12:55:24.738Z,100354.60
2023-05-14T12:57:59.049Z,100357.80
2023-05-14T13:00:33.291Z,100357.00
2023-05-14T13:03:07.571Z,100357.40
2023-05-14T13:05:42.214Z,100348.40
2023-05-14T13:08:18.052Z,100349.80
2023-05-14T13:10:52.547Z,100347.00
2023-05-14T13:13:27.557Z,100345.60
2023-05-14T13:16:01.908Z,100344.40
2023-05-14T13:18:36.318Z,100344.40
2023-05-14T13:21:12.837Z,100333.00
2023-05-14T13:23:47.232Z,100331.80
2023-05-14T13:26:21.812Z,100325.40
2023-05-14T13:28:56.464Z,100329.60
2023-05-14T13:31:30.812Z,100331.80
2023-05-14T13:34:05.130Z,100328.40
2023-05-14T13:36:39.848Z,100321.60
2023-05-14T13:39:15.354Z,100318.40
2023-05-14T13:41:50.831Z,100315.60
2023-05-14T13:44:25.225Z,100319.40
2023-05-14T13:46:59.659Z,100311.60
2023-05-14T13:49:34.390Z,100308.00
2023-05-14T13:52:09.792Z,100306.20
2023-05-14T13:54:44.201Z,100305.80
2023-05-14T13:57:23.264Z,100297.00
2023-05-14T13:59:57.661Z,100297.60
2023-05-14T14:02:33.537Z,100289.00
2023-05-14T14:05:10.495Z,100293.40
2023-05-14T14:07:44.781Z,100292.20
2023-05-14T14:10:19.239Z,100294.00
2023-05-14T14:12:54.288Z,100286.60
2023-05-14T14:15:29.304Z,100290.60
2023-05-14T14:18:03.845Z,100291.60
2023-05-14T14:20:39.635Z,100292.60
2023-05-14T14:23:13.826Z,100293.20
2023-05-14T14:25:47.971Z,100294.80
2023-05-14T14:28:22.177Z,100296.00
2023-05-14T14:30:56.600Z,100293.80
2023-05-14T14:33:31.373Z,100291.00
2023-05-14T14:36:05.981Z,100296.00
2023-05-14T14:38:40.390Z,100293.00
2023-05-14T14:41:15.457Z,100296.80
2023-05-14T14:43:49.974Z,100293.40
2023-05-14T14:46:24.282Z,100291.00
2023-05-14T14:48:58.596Z,100289.60
2023-05-14T14:51:33.216Z,100292.20
2023-05-14T14:54:08.103Z,100291.00
2023-05-14T14:56:43.639Z,100290.40
2023-05-14T14:59:17.891Z,100289.60
2023-05-14T15:01:52.127Z,100283.80
2023-05-14T15:04:26.397Z,100286.20
2023-05-14T15:07:00.845Z,100286.80
2023-05-14T15:09:35.880Z,100286.80
2023-05-14T15:12:11.505Z,100277.20
2023-05-14T15:14:45.932Z,100278.60
2023-05-14T15:17:20.278Z,100272.00
2023-05-14T15:19:54.709Z,100270.60
2023-05-14T15:22:29.166Z,100271.00
2023-05-14T15:25:04.881Z,100264.80
2023-05-14T15:27:39.601Z,100264.20
2023-05-14T15:30:17.060Z,100259.00
2023-05-14T15:32:51.521Z,100256.60
2023-05-14T15:35:26.311Z,100253.80
2023-05-14T15:38:01.322Z,100256.80
2023-05-14T15:40:35.700Z,100253.40
2023-05-14T15:43:10.368Z,100253.00
2023-05-14T15:45:47.014Z,100250.20
2023-05-14T15:48:21.757Z,100239.00
2023-05-14T15:50:56.649Z,100240.40
2023-05-14T15:53:33.281Z,100233.60
2023-05-14T15:56:08.449Z,100228.40
2023-05-14T15:58:42.995Z,100220.00
2023-05-14T16:01:17.469Z,100221.80
2023-05-14T16:03:53.515Z,100224.20
2023-05-14T16:06:28.490Z,100225.00
2023-05-14T16:09:03.754Z,100235.60
2023-05-14T16:11:38.630Z,100228.80
2023-05-14T16:14:13.601Z,100231.00
2023-05-14T16:16:48.007Z,100226.40
2023-05-14T16:19:22.209Z,100225.40
2023-05-14T16:21:56.793Z,100227.20
2023-05-14T16:24:31.182Z,100222.80
2023-05-14T16:27:05.632Z,100220.80
2023-05-14T16:29:39.959Z,100218.20
2023-05-14T16:32:14.267Z,100213.80
2023-05-14T16:34:50.038Z,100215.20
2023-05-14T16:37:24.356Z,100214.20
2023-05-14T16:39:58.774Z,100214.20
2023-05-14T16:42:33.121Z,100215.00
2023-05-14T16:45:09.155Z,100214.20
2023-05-14T16:47:43.394Z,100209.00
2023-05-14T16:50:18.087Z,100212.60
2023-05-14T16:52:52.307Z,100217.00
2023-05-14T16:55:27.095Z,100216.40
2023-05-14T16:58:01.339Z,100215.80
2023-05-14T17:00:35.547Z,100214.80
2023-05-14T17:03:09.901Z,100215.40
2023-05-14T17:05:44.295Z,100219.20
2023-05-14T17:08:18.496Z,100224.80
2023-05-14T17:10:52.643Z,100225.60
2023-05-14T17:13:27.524Z,100223.60
2023-05-14T17:16:19.918Z,100216.60
2023-05-14T17:19:52.629Z,100222.00
2023-05-14T17:22:27.467Z,100219.40
2023-05-14T17:25:01.725Z,100220.60
2023-05-14T17:27:36.571Z,100223.00
2023-05-14T17:30:13.637Z,100222.20
2023-05-14T17:32:50.303Z,100219.20
2023-05-14T17:35:25.657Z,100213.40
2023-05-14T17:38:00.757Z,100208.20
2023-05-14T17:40:35.428Z,100206.60
2023-05-14T17:43:09.861Z,100208.00
2023-05-14T17:45:53.951Z,100207.60
2023-05-14T17:48:29.027Z,100205.80
2023-05-14T17:51:03.427Z,100207.60
2023-05-14T17:53:38.281Z,100208.20
2023-05-14T17:56:12.825Z,100203.00
2023-05-14T17:58:47.402Z,100207.40
2023-05-14T18:01:21.916Z,100202.60
2023-05-14T18:03:56.550Z,100200.40
2023-05-14T18:06:31.054Z,100207.80
2023-05-14T18:09:05.915Z,100206.40
2023-05-14T18:11:40.630Z,100203.80
2023-05-14T18:14:15.397Z,100204.80
2023-05-14T18:16:50.296Z,100199.80
2023-05-14T18:19:25.191Z,100205.40
2023-05-14T18:21:59.725Z,100200.20
2023-05-14T18:24:34.559Z,100205.40
2023-05-14T18:27:09.791Z,100201.60
2023-05-14T18:29:44.473Z,100195.00
2023-05-14T18:32:18.932Z,100194.80
2023-05-14T18:34:53.984Z,100191.00
2023-05-14T18:37:29.132Z,100193.80
2023-05-14T18:40:04.773Z,100189.00
2023-05-14T18:42:40.390Z,100185.80
2023-05-14T18:45:16.760Z,100190.00
2023-05-14T18:47:54.916Z,100189.20
2023-05-14T18:50:29.827Z,100195.80
2023-05-14T18:53:04.515Z,100198.60
2023-05-14T18:55:40.096Z,100193.60
2023-05-14T18:58:14.656Z,100193.20
2023-05-14T19:00:49.276Z,100191.80
2023-05-14T19:03:23.965Z,100189.60
2023-05-14T19:06:03.494Z,100184.80
2023-05-14T19:08:38.896Z,100187.20
2023-05-14T19:11:13.380Z,100182.60
2023-05-14T19:13:49.646Z,100182.40
2023-05-14T19:16:25.778Z,100184.80
2023-05-14T19:19:00.362Z,100180.80
2023-05-14T19:21:35.191Z,100183.80
2023-05-14T19:24:10.952Z,100178.20
2023-05-14T19:26:46.941Z,100171.20
2023-05-14T19:29:21.453Z,100183.00
2023-05-14T19:31:56.175Z,100186.20
2023-05-14T19:34:31.071Z,100183.40
2023-05-14T19:37:06.732Z,100177.60
2023-05-14T19:39:41.696Z,100164.60
2023-05-14T19:42:16.116Z,100159.00
2023-05-14T19:44:50.558Z,100156.60
2023-05-14T19:47:25.750Z,100162.60
2023-05-14T19:50:00.391Z,100163.00
2023-05-14T19:52:35.072Z,100167.00
2023-05-14T19:55:11.358Z,100175.40
2023-05-14T19:57:45.838Z,100177.00
2023-05-14T20:00:22.894Z,100152.60
2023-05-14T20:02:59.721Z,100138.80
2023-05-14T20:05:36.413Z,100128.80
2023-05-14T20:08:11.754Z,100134.60
2023-05-14T20:10:47.650Z,100122.60
2023-05-14T20:13:24.464Z,100123.60
2023-05-14T20:16:00.236Z,100126.00
2023-05-14T20:18:35.022Z,100116.40
2023-05-14T20:21:09.616Z,100115.40
2023-05-14T20:23:44.205Z,100114.00
2023-05-14T20:26:19.016Z,100118.20
2023-05-14T20:28:53.851Z,100123.00
2023-05-14T20:31:29.048Z,100129.80
2023-05-14T20:34:03.751Z,100134.40
2023-05-14T20:36:38.594Z,100155.00
2023-05-14T20:39:14.524Z,100149.40
2023-05-14T20:41:49.210Z,100135.40
2023-05-14T20:44:23.756Z,100122.40
2023-05-14T20:46:58.338Z,100120.20
2023-05-14T20:49:33.019Z,100114.80
2023-05-14T20:52:08.183Z,100106.60
2023-05-14T20:54:42.891Z,100105.60
2023-05-14T20:57:17.991Z,100100.80
2023-05-14T20:59:54.175Z,100100.40
2023-05-14T21:02:28.673Z,100108.00
2023-05-14T21:05:03.294Z,100109.60
2023-05-14T21:07:37.792Z,100118.60
2023-05-14T21:10:13.994Z,100122.00
2023-05-14T21:12:48.466Z,100106.60
2023-05-14T21:15:23.319Z,100089.60
2023-05-14T21:17:58.578Z,100092.40
2023-05-14T21:20:33.309Z,100092.80
2023-05-14T21:23:07.728Z,100094.40
2023-05-14T21:25:41.986Z,100110.00
2023-05-14T21:28:16.474Z,100125.40
2023-05-14T21:30:53.055Z,100159.20
2023-05-14T21:33:27.641Z,100174.60
2023-05-14T21:36:02.317Z,100157.40
2023-05-14T21:38:37.141Z,100153.20
2023-05-14T21:41:11.539Z,100152.60
2023-05-14T21:43:46.140Z,100147.40
2023-05-14T21:46:20.899Z,100143.80
2023-05-14T21:48:55.504Z,100143.20
2023-05-14T21:51:30.216Z,100139.20
2023-05-14T21:54:04.503Z,100135.20
2023-05-14T21:56:39.810Z,100135.20
2023-05-14T21:59:14.107Z,100131.20
2023-05-14T22:02:05.694Z,100122.60
2023-05-14T22:04:41.472Z,100115.00
2023-05-14T22:07:16.109Z,100109.60
2023-05-14T22:09:50.371Z,100104.20
2023-05-14T22:12:24.882Z,100100.20
2023-05-14T22:14:59.338Z,100097.40
2023-05-14T22:17:34.479Z,100099.40
2023-05-14T22:20:11.813Z,100098.40
2023-05-14T22:22:46.226Z,100085.20
2023-05-14T22:25:20.704Z,100082.60
2023-05-14T22:27:55.228Z,100071.20
2023-05-14T22:30:29.496Z,100063.80
2023-05-14T22:33:03.831Z,100059.40
2023-05-14T22:35:38.051Z,100057.20
2023-05-14T22:38:12.200Z,100056.20
2023-05-14T22:40:46.306Z,100049.20
2023-05-14T22:43:20.442Z,100044.20
2023-05-14T22:45:54.886Z,100037.20
2023-05-14T22:48:29.377Z,100036.40
2023-05-14T22:51:03.794Z,100035.00
2023-05-14T22:53:38.016Z,100032.00
2023-05-14T22:56:12.439Z,100029.80
2023-05-14T22:58:46.722Z,100027.60
2023-05-14T23:01:20.887Z,100025.20
2023-05-14T23:03:55.091Z,100023.00
2023-05-14T23:06:29.511Z,100013.20
2023-05-14T23:09:03.724Z,100014.80
2023-05-14T23:11:37.730Z,100014.80
2023-05-14T23:14:12.098Z,100003.80
2023-05-14T23:16:46.303Z,100008.20
2023-05-14T23:19:21.292Z,99999.80
2023-05-14T23:21:55.668Z,99991.00
2023-05-14T23:24:29.887Z,99993.20
2023-05-14T23:27:04.081Z,99991.20
2023-05-14T23:29:38.529Z,99990.60
2023-05-14T23:32:13.112Z,99982.20
2023-05-14T23:34:47.464Z,99976.40
2023-05-14T23:37:21.787Z,99972.60
2023-05-14T23:39:56.547Z,99973.60
2023-05-14T23:42:30.807Z,99971.60
2023-05-14T23:45:05.391Z,99965.20
2023-05-14T23:47:39.978Z,99969.60
2023-05-14T23:50:14.624Z,99960.60
2023-05-14T23:52:48.899Z,99955.80
2023-05-14T23:55:24.673Z,99954.40
2023-05-14T23:57:59.160Z,99947.20
